sensor_id;sensor_type;location;lat;lon;timestamp;pressure;altitude;pressure_sealevel;temperature;humidity
41866;BME280;27539;43.222;27.558;2023-09-07T00:00:42;100982.56;;;20.62;100.00
41866;BME280;27539;43.222;27.558;2023-09-07T00:03:07;100917.53;;;20.24;100.00
41866;BME280;27539;43.222;27.558;2023-09-07T00:05:33;100975.34;;;20.51;100.00
41866;BME280;27539;43.222;27.558;2023-09-07T00:07:58;100970.16;;;20.39;100.00
41866;BME280;27539;43.222;27.558;2023-09-07T00:10:24;100943.78;;;20.25;100.00
41866;BME280;27539;43.222;27.558;2023-09-07T00:12:51;100986.19;;;20.44;100.00
41866;BME280;27539;43.222;27.558;2023-09-07T00:15:16;100966.47;;;20.39;100.00
41866;BME280;27539;43.222;27.558;2023-09-07T00:17:44;100966.94;;;20.46;100.00
41866;BME280;27539;43.222;27.558;2023-09-07T00:20:10;100973.13;;;20.48;100.00
41866;BME280;27539;43.222;27.558;2023-09-07T00:22:39;100972.50;;;20.51;100.00
41866;BME280;27539;43.222;27.558;2023-09-07T00:25:05;100973.56;;;20.36;100.00
41866;BME280;27539;43.222;27.558;2023-09-07T00:27:33;100972.19;;;20.34;100.00
41866;BME280;27539;43.222;27.558;2023-09-07T00:29:59;100972.59;;;20.46;100.00
41866;BME280;27539;43.222;27.558;2023-09-07T00:32:24;100970.16;;;20.39;100.00
41866;BME280;27539;43.222;27.558;2023-09-07T00:34:50;100963.06;;;20.42;100.00
41866;BME280;27539;43.222;27.558;2023-09-07T00:37:15;100972.66;;;20.41;100.00
41866;BME280;27539;43.222;27.558;2023-09-07T00:39:41;100983.13;;;20.40;100.00
41866;BME280;27539;43.222;27.558;2023-09-07T00:42:06;100972.13;;;20.39;100.00
41866;BME280;27539;43.222;27.558;2023-09-07T00:44:32;100968.38;;;20.43;100.00
41866;BME280;27539;43.222;27.558;2023-09-07T00:46:57;100960.31;;;20.37;100.00
41866;BME280;27539;43.222;27.558;2023-09-07T00:49:24;100967.63;;;20.38;100.00
41866;BME280;27539;43.222;27.558;2023-09-07T00:51:50;100959.34;;;20.22;100.00
41866;BME280;27539;43.222;27.558;2023-09-07T00:54:17;100969.81;;;20.22;100.00
41866;BME280;27539;43.222;27.558;2023-09-07T00:56:42;100955.28;;;20.10;100.00
41866;BME280;27539;43.222;27.558;2023-09-07T00:59:08;100955.34;;;20.04;100.00
41866;BME280;27539;43.222;27.558;2023-09-07T01:01:35;100955.69;;;19.98;100.00
41866;BME280;27539;43.222;27.558;2023-09-07T01:04:01;100973.06;;;20.10;100.00
41866;BME280;27539;43.222;27.558;2023-09-07T01:06:39;100958.88;;;19.91;100.00
41866;BME280;27539;43.222;27.558;2023-09-07T01:09:10;100952.03;;;19.97;100.00
41866;BME280;27539;43.222;27.558;2023-09-07T01:11:39;100970.09;;;19.96;100.00
41866;BME280;27539;43.222;27.558;2023-09-07T01:14:04;100967.41;;;19.86;100.00
41866;BME280;27539;43.222;27.558;2023-09-07T01:16:31;100953.84;;;19.88;100.00
41866;BME280;27539;43.222;27.558;2023-09-07T01:19:00;100960.44;;;19.78;100.00
41866;BME280;27539;43.222;27.558;2023-09-07T01:21:27;100971.69;;;19.83;100.00
41866;BME280;27539;43.222;27.558;2023-09-07T01:23:54;100965.69;;;19.90;100.00
41866;BME280;27539;43.222;27.558;2023-09-07T01:26:20;100973.66;;;19.83;100.00
41866;BME280;27539;43.222;27.558;2023-09-07T01:28:45;100964.22;;;19.69;100.00
41866;BME280;27539;43.222;27.558;2023-09-07T01:31:11;100971.84;;;19.68;100.00
41866;BME280;27539;43.222;27.558;2023-09-07T01:33:37;100972.41;;;19.65;100.00
41866;BME280;27539;43.222;27.558;2023-09-07T01:36:02;100971.84;;;19.68;100.00
41866;BME280;27539;43.222;27.558;2023-09-07T01:38:28;100958.19;;;19.51;100.00
41866;BME280;27539;43.222;27.558;2023-09-07T01:40:53;100963.47;;;19.58;100.00
41866;BME280;27539;43.222;27.558;2023-09-07T01:43:20;100945.41;;;19.59;100.00
41866;BME280;27539;43.222;27.558;2023-09-07T01:45:45;100968.44;;;19.66;100.00
41866;BME280;27539;43.222;27.558;2023-09-07T01:48:13;100979.50;;;19.62;100.00
41866;BME280;27539;43.222;27.558;2023-09-07T01:50:39;100972.41;;;19.70;100.00
41866;BME280;27539;43.222;27.558;2023-09-07T01:53:04;100958.88;;;19.67;100.00
41866;BME280;27539;43.222;27.558;2023-09-07T01:55:33;100970.44;;;19.65;100.00
41866;BME280;27539;43.222;27.558;2023-09-07T01:57:59;100934.56;;;19.42;100.00
41866;BME280;27539;43.222;27.558;2023-09-07T02:00:24;100916.59;;;19.33;100.00
41866;BME280;27539;43.222;27.558;2023-09-07T02:02:50;100957.16;;;19.66;100.00
41866;BME280;27539;43.222;27.558;2023-09-07T02:05:16;100930.75;;;19.57;100.00
41866;BME280;27539;43.222;27.558;2023-09-07T02:07:42;100968.56;;;19.56;100.00
41866;BME280;27539;43.222;27.558;2023-09-07T02:10:08;100960.78;;;19.42;100.00
41866;BME280;27539;43.222;27.558;2023-09-07T02:12:34;100974.00;;;19.47;100.00
41866;BME280;27539;43.222;27.558;2023-09-07T02:15:01;100929.47;;;19.15;100.00
41866;BME280;27539;43.222;27.558;2023-09-07T02:17:28;100974.41;;;19.35;100.00
41866;BME280;27539;43.222;27.558;2023-09-07T02:19:53;100914.16;;;19.21;100.00
41866;BME280;27539;43.222;27.558;2023-09-07T02:22:19;100953.25;;;19.33;100.00
41866;BME280;27539;43.222;27.558;2023-09-07T02:24:44;100964.16;;;19.15;100.00
41866;BME280;27539;43.222;27.558;2023-09-07T02:27:09;100970.50;;;19.31;100.00
41866;BME280;27539;43.222;27.558;2023-09-07T02:29:35;100956.47;;;19.21;100.00
41866;BME280;27539;43.222;27.558;2023-09-07T02:32:00;100960.44;;;19.20;100.00
41866;BME280;27539;43.222;27.558;2023-09-07T02:34:26;100884.66;;;18.79;100.00
41866;BME280;27539;43.222;27.558;2023-09-07T02:36:51;100961.63;;;19.14;100.00
41866;BME280;27539;43.222;27.558;2023-09-07T02:39:17;100969.97;;;19.29;100.00
41866;BME280;27539;43.222;27.558;2023-09-07T02:41:43;100943.56;;;19.15;100.00
41866;BME280;27539;43.222;27.558;2023-09-07T02:44:09;100905.47;;;18.83;100.00
41866;BME280;27539;43.222;27.558;2023-09-07T02:46:34;100941.16;;;18.98;100.00
41866;BME280;27539;43.222;27.558;2023-09-07T02:48:59;100925.16;;;18.88;100.00
41866;BME280;27539;43.222;27.558;2023-09-07T02:51:25;100958.25;;;19.12;100.00
41866;BME280;27539;43.222;27.558;2023-09-07T02:53:51;100967.94;;;19.00;100.00
41866;BME280;27539;43.222;27.558;2023-09-07T02:56:17;100945.72;;;18.94;100.00
41866;BME280;27539;43.222;27.558;2023-09-07T02:58:43;100906.34;;;18.84;100.00
41866;BME280;27539;43.222;27.558;2023-09-07T03:01:08;100968.41;;;19.13;100.00
41866;BME280;27539;43.222;27.558;2023-09-07T03:03:34;100955.16;;;19.08;100.00
41866;BME280;27539;43.222;27.558;2023-09-07T03:06:11;100967.66;;;19.02;100.00
41866;BME280;27539;43.222;27.558;2023-09-07T03:08:37;100959.59;;;18.85;100.00
41866;BME280;27539;43.222;27.558;2023-09-07T03:11:03;100907.91;;;18.55;100.00
41866;BME280;27539;43.222;27.558;2023-09-07T03:13:30;100973.56;;;19.00;100.00
41866;BME280;27539;43.222;27.558;2023-09-07T03:15:55;100978.44;;;18.90;100.00
41866;BME280;27539;43.222;27.558;2023-09-07T03:18:21;100898.44;;;18.41;100.00
41866;BME280;27539;43.222;27.558;2023-09-07T03:20:46;100984.88;;;18.95;100.00
41866;BME280;27539;43.222;27.558;2023-09-07T03:23:12;100988.53;;;18.96;100.00
41866;BME280;27539;43.222;27.558;2023-09-07T03:25:38;100970.75;;;19.00;100.00
41866;BME280;27539;43.222;27.558;2023-09-07T03:28:04;100981.41;;;19.09;100.00
41866;BME280;27539;43.222;27.558;2023-09-07T03:30:29;100919.69;;;18.63;100.00
41866;BME280;27539;43.222;27.558;2023-09-07T03:32:55;100963.22;;;18.91;100.00
41866;BME280;27539;43.222;27.558;2023-09-07T03:35:21;100966.91;;;18.91;100.00
41866;BME280;27539;43.222;27.558;2023-09-07T03:37:46;100979.75;;;19.03;100.00
41866;BME280;27539;43.222;27.558;2023-09-07T03:40:12;100971.91;;;18.99;100.00
41866;BME280;27539;43.222;27.558;2023-09-07T03:42:38;100982.03;;;19.00;100.00
41866;BME280;27539;43.222;27.558;2023-09-07T03:45:04;100983.22;;;18.94;100.00
41866;BME280;27539;43.222;27.558;2023-09-07T03:47:30;100985.53;;;18.87;100.00
41866;BME280;27539;43.222;27.558;2023-09-07T03:49:56;100989.47;;;18.86;100.00
41866;BME280;27539;43.222;27.558;2023-09-07T03:52:23;100993.69;;;18.89;100.00
41866;BME280;27539;43.222;27.558;2023-09-07T03:54:50;100998.97;;;18.95;100.00
41866;BME280;27539;43.222;27.558;2023-09-07T03:57:18;100984.88;;;18.95;100.00
41866;BME280;27539;43.222;27.558;2023-09-07T03:59:44;100977.03;;;18.92;100.00
41866;BME280;27539;43.222;27.558;2023-09-07T04:02:10;100985.88;;;19.15;100.00
41866;BME280;27539;43.222;27.558;2023-09-07T04:04:35;100976.91;;;19.08;100.00
41866;BME280;27539;43.222;27.558;2023-09-07T04:07:00;100984.19;;;19.14;100.00
41866;BME280;27539;43.222;27.558;2023-09-07T04:09:26;100983.59;;;19.17;100.00
41866;BME280;27539;43.222;27.558;2023-09-07T04:11:51;100989.16;;;19.27;100.00
41866;BME280;27539;43.222;27.558;2023-09-07T04:14:17;100987.03;;;19.43;100.00
41866;BME280;27539;43.222;27.558;2023-09-07T04:16:42;100975.47;;;19.45;100.00
41866;BME280;27539;43.222;27.558;2023-09-07T04:19:08;100991.88;;;19.67;100.00
41866;BME280;27539;43.222;27.558;2023-09-07T04:21:35;100974.94;;;19.72;100.00
41866;BME280;27539;43.222;27.558;2023-09-07T04:24:01;100983.09;;;19.73;100.00
41866;BME280;27539;43.222;27.558;2023-09-07T04:26:27;100993.63;;;19.92;100.00
41866;BME280;27539;43.222;27.558;2023-09-07T04:28:52;100992.97;;;20.00;100.00
41866;BME280;27539;43.222;27.558;2023-09-07T04:31:18;100967.47;;;19.81;100.00
41866;BME280;27539;43.222;27.558;2023-09-07T04:33:43;100991.22;;;20.04;100.00
41866;BME280;27539;43.222;27.558;2023-09-07T04:36:13;100989.53;;;20.03;100.00
41866;BME280;27539;43.222;27.558;2023-09-07T04:38:40;101006.72;;;20.06;100.00
41866;BME280;27539;43.222;27.558;2023-09-07T04:41:09;101006.22;;;20.23;100.00
41866;BME280;27539;43.222;27.558;2023-09-07T04:43:35;100992.66;;;20.25;100.00
41866;BME280;27539;43.222;27.558;2023-09-07T04:46:01;100998.56;;;20.29;100.00
41866;BME280;27539;43.222;27.558;2023-09-07T04:48:27;101013.66;;;20.38;100.00
41866;BME280;27539;43.222;27.558;2023-09-07T04:51:04;101012.16;;;20.46;100.00
41866;BME280;27539;43.222;27.558;2023-09-07T04:53:30;101000.78;;;20.51;100.00
41866;BME280;27539;43.222;27.558;2023-09-07T04:55:59;101009.94;;;20.67;100.00
41866;BME280;27539;43.222;27.558;2023-09-07T04:58:24;101007.41;;;20.65;100.00
41866;BME280;27539;43.222;27.558;2023-09-07T05:00:50;100963.53;;;20.49;100.00
41866;BME280;27539;43.222;27.558;2023-09-07T05:03:16;101015.50;;;20.91;100.00
41866;BME280;27539;43.222;27.558;2023-09-07T05:05:42;101010.69;;;20.91;100.00
41866;BME280;27539;43.222;27.558;2023-09-07T05:08:08;101021.88;;;21.02;100.00
41866;BME280;27539;43.222;27.558;2023-09-07T05:10:34;101012.50;;;21.01;100.00
41866;BME280;27539;43.222;27.558;2023-09-07T05:13:00;101014.59;;;21.14;100.00
41866;BME280;27539;43.222;27.558;2023-09-07T05:15:25;101021.84;;;21.21;100.00
41866;BME280;27539;43.222;27.558;2023-09-07T05:17:52;101016.84;;;21.31;100.00
41866;BME280;27539;43.222;27.558;2023-09-07T05:20:17;100994.47;;;21.16;100.00
41866;BME280;27539;43.222;27.558;2023-09-07T05:22:43;101026.09;;;21.37;100.00
41866;BME280;27539;43.222;27.558;2023-09-07T05:25:09;101009.66;;;21.39;100.00
41866;BME280;27539;43.222;27.558;2023-09-07T05:27:35;100983.63;;;21.04;100.00
41866;BME280;27539;43.222;27.558;2023-09-07T05:30:04;101027.88;;;21.52;100.00
41866;BME280;27539;43.222;27.558;2023-09-07T05:32:30;101033.00;;;21.64;100.00
41866;BME280;27539;43.222;27.558;2023-09-07T05:34:55;101024.66;;;21.72;100.00
41866;BME280;27539;43.222;27.558;2023-09-07T05:37:21;101034.00;;;21.73;100.00
41866;BME280;27539;43.222;27.558;2023-09-07T05:39:46;101024.22;;;21.79;100.00
41866;BME280;27539;43.222;27.558;2023-09-07T05:42:12;101030.66;;;21.85;100.00
41866;BME280;27539;43.222;27.558;2023-09-07T05:44:38;101028.13;;;21.83;100.00
41866;BME280;27539;43.222;27.558;2023-09-07T05:47:04;101037.59;;;21.92;100.00
41866;BME280;27539;43.222;27.558;2023-09-07T05:49:29;101019.78;;;22.06;100.00
41866;BME280;27539;43.222;27.558;2023-09-07T05:51:55;101037.13;;;22.32;100.00
41866;BME280;27539;43.222;27.558;2023-09-07T05:54:21;101045.50;;;22.37;100.00
41866;BME280;27539;43.222;27.558;2023-09-07T05:56:46;101040.56;;;22.56;100.00
41866;BME280;27539;43.222;27.558;2023-09-07T05:59:12;101038.88;;;22.69;100.00
41866;BME280;27539;43.222;27.558;2023-09-07T06:01:38;101042.72;;;22.87;100.00
41866;BME280;27539;43.222;27.558;2023-09-07T06:04:04;101055.31;;;23.08;100.00
41866;BME280;27539;43.222;27.558;2023-09-07T06:06:29;101060.03;;;23.13;100.00
41866;BME280;27539;43.222;27.558;2023-09-07T06:08:55;101053.56;;;23.35;100.00
41866;BME280;27539;43.222;27.558;2023-09-07T06:11:20;101046.00;;;23.31;100.00
41866;BME280;27539;43.222;27.558;2023-09-07T06:13:46;101051.34;;;23.55;100.00
41866;BME280;27539;43.222;27.558;2023-09-07T06:16:12;101059.53;;;23.56;100.00
41866;BME280;27539;43.222;27.558;2023-09-07T06:18:37;101056.63;;;23.70;100.00
41866;BME280;27539;43.222;27.558;2023-09-07T06:21:04;101056.91;;;23.82;100.00
41866;BME280;27539;43.222;27.558;2023-09-07T06:23:31;101049.66;;;23.99;100.00
41866;BME280;27539;43.222;27.558;2023-09-07T06:25:56;101050.69;;;24.03;100.00
41866;BME280;27539;43.222;27.558;2023-09-07T06:28:22;101017.41;;;24.03;100.00
41866;BME280;27539;43.222;27.558;2023-09-07T06:30:47;101054.66;;;24.33;100.00
41866;BME280;27539;43.222;27.558;2023-09-07T06:33:13;101053.72;;;24.46;100.00
41866;BME280;27539;43.222;27.558;2023-09-07T06:35:38;101053.75;;;24.55;99.72
41866;BME280;27539;43.222;27.558;2023-09-07T06:38:04;101055.13;;;24.75;99.35
41866;BME280;27539;43.222;27.558;2023-09-07T06:40:29;101046.28;;;24.85;99.01
41866;BME280;27539;43.222;27.558;2023-09-07T06:42:55;101045.16;;;25.04;100.00
41866;BME280;27539;43.222;27.558;2023-09-07T06:45:22;101040.66;;;25.20;99.64
41866;BME280;27539;43.222;27.558;2023-09-07T06:47:52;101043.34;;;25.34;98.84
41866;BME280;27539;43.222;27.558;2023-09-07T06:50:17;101014.00;;;25.42;99.03
41866;BME280;27539;43.222;27.558;2023-09-07T06:52:43;101044.44;;;25.85;97.22
41866;BME280;27539;43.222;27.558;2023-09-07T06:55:08;101045.72;;;26.05;96.94
41866;BME280;27539;43.222;27.558;2023-09-07T06:57:34;101036.78;;;26.15;95.70
41866;BME280;27539;43.222;27.558;2023-09-07T07:00:00;101033.53;;;26.34;95.70
41866;BME280;27539;43.222;27.558;2023-09-07T07:02:26;101040.50;;;26.54;95.88
41866;BME280;27539;43.222;27.558;2023-09-07T07:04:51;101042.28;;;26.67;90.55
41866;BME280;27539;43.222;27.558;2023-09-07T07:07:17;101048.16;;;26.71;91.82
41866;BME280;27539;43.222;27.558;2023-09-07T07:09:43;101031.84;;;26.71;90.38
41866;BME280;27539;43.222;27.558;2023-09-07T07:12:09;101034.63;;;26.80;93.33
41866;BME280;27539;43.222;27.558;2023-09-07T07:14:34;101040.91;;;26.94;92.59
41866;BME280;27539;43.222;27.558;2023-09-07T07:17:00;101014.03;;;26.96;89.52
41866;BME280;27539;43.222;27.558;2023-09-07T07:19:28;101011.19;;;27.17;91.37
41866;BME280;27539;43.222;27.558;2023-09-07T07:21:54;101008.16;;;27.22;88.08
41866;BME280;27539;43.222;27.558;2023-09-07T07:24:19;101009.69;;;27.19;87.24
41866;BME280;27539;43.222;27.558;2023-09-07T07:26:45;101019.41;;;27.39;87.82
41866;BME280;27539;43.222;27.558;2023-09-07T07:29:11;101024.06;;;27.44;88.60
41866;BME280;27539;43.222;27.558;2023-09-07T07:31:37;101013.03;;;27.54;82.84
41866;BME280;27539;43.222;27.558;2023-09-07T07:34:03;101015.50;;;27.77;85.30
41866;BME280;27539;43.222;27.558;2023-09-07T07:36:28;101005.69;;;27.66;83.28
41866;BME280;27539;43.222;27.558;2023-09-07T07:38:54;101016.38;;;27.90;80.30
41866;BME280;27539;43.222;27.558;2023-09-07T07:41:20;100990.06;;;27.84;77.88
41866;BME280;27539;43.222;27.558;2023-09-07T07:43:45;101006.53;;;28.12;80.27
41866;BME280;27539;43.222;27.558;2023-09-07T07:46:11;101009.16;;;28.17;71.26
41866;BME280;27539;43.222;27.558;2023-09-07T07:48:36;100999.88;;;28.32;74.20
41866;BME280;27539;43.222;27.558;2023-09-07T07:51:03;100989.00;;;28.38;69.47
41866;BME280;27539;43.222;27.558;2023-09-07T07:53:30;100982.72;;;28.45;63.50
41866;BME280;27539;43.222;27.558;2023-09-07T07:55:56;100954.78;;;28.41;62.95
41866;BME280;27539;43.222;27.558;2023-09-07T07:58:22;100979.69;;;28.78;66.56
41866;BME280;27539;43.222;27.558;2023-09-07T08:00:48;100995.03;;;28.98;64.38
41866;BME280;27539;43.222;27.558;2023-09-07T08:03:15;100963.75;;;29.05;60.61
41866;BME280;27539;43.222;27.558;2023-09-07T08:05:40;100993.75;;;29.51;62.66
41866;BME280;27539;43.222;27.558;2023-09-07T08:08:06;100981.66;;;29.58;55.67
41866;BME280;27539;43.222;27.558;2023-09-07T08:10:36;100990.06;;;29.51;54.97
41866;BME280;27539;43.222;27.558;2023-09-07T08:13:03;100982.28;;;29.51;55.97
41866;BME280;27539;43.222;27.558;2023-09-07T08:15:29;100992.16;;;29.38;52.05
41866;BME280;27539;43.222;27.558;2023-09-07T08:17:54;100984.78;;;28.97;54.76
41866;BME280;27539;43.222;27.558;2023-09-07T08:20:20;100976.50;;;29.20;57.29
41866;BME280;27539;43.222;27.558;2023-09-07T08:22:46;100992.09;;;29.50;57.53
41866;BME280;27539;43.222;27.558;2023-09-07T08:25:13;100987.19;;;29.79;55.85
41866;BME280;27539;43.222;27.558;2023-09-07T08:27:39;100978.59;;;29.95;53.51
41866;BME280;27539;43.222;27.558;2023-09-07T08:30:05;100966.28;;;29.94;53.21
41866;BME280;27539;43.222;27.558;2023-09-07T08:32:31;100979.13;;;29.69;50.48
41866;BME280;27539;43.222;27.558;2023-09-07T08:34:57;100970.53;;;29.41;51.86
41866;BME280;27539;43.222;27.558;2023-09-07T08:37:26;100977.53;;;29.27;53.12
41866;BME280;27539;43.222;27.558;2023-09-07T08:39:54;100966.03;;;28.99;55.40
41866;BME280;27539;43.222;27.558;2023-09-07T08:42:20;100965.34;;;28.90;55.83
41866;BME280;27539;43.222;27.558;2023-09-07T08:44:46;100966.25;;;29.06;55.35
41866;BME280;27539;43.222;27.558;2023-09-07T08:47:12;100954.41;;;29.20;53.87
41866;BME280;27539;43.222;27.558;2023-09-07T08:49:41;100966.44;;;29.42;52.65
41866;BME280;27539;43.222;27.558;2023-09-07T08:52:08;100955.56;;;29.47;53.18
41866;BME280;27539;43.222;27.558;2023-09-07T08:54:34;100962.75;;;29.69;50.27
41866;BME280;27539;43.222;27.558;2023-09-07T08:57:02;100965.81;;;29.77;50.68
41866;BME280;27539;43.222;27.558;2023-09-07T08:59:29;100963.97;;;29.84;50.47
41866;BME280;27539;43.222;27.558;2023-09-07T09:01:58;100962.31;;;29.83;51.44
41866;BME280;27539;43.222;27.558;2023-09-07T09:04:26;100965.53;;;29.82;51.31
41866;BME280;27539;43.222;27.558;2023-09-07T09:06:53;100943.06;;;29.68;50.34
41866;BME280;27539;43.222;27.558;2023-09-07T09:09:22;100962.44;;;29.59;49.61
41866;BME280;27539;43.222;27.558;2023-09-07T09:11:51;100949.53;;;29.37;50.62
41866;BME280;27539;43.222;27.558;2023-09-07T09:14:17;100939.72;;;29.22;50.19
41866;BME280;27539;43.222;27.558;2023-09-07T09:16:53;100947.22;;;29.70;51.52
41866;BME280;27539;43.222;27.558;2023-09-07T09:19:18;100941.47;;;29.86;48.37
41866;BME280;27539;43.222;27.558;2023-09-07T09:21:44;100955.22;;;30.25;49.67
41866;BME280;27539;43.222;27.558;2023-09-07T09:24:11;100953.88;;;30.22;47.61
41866;BME280;27539;43.222;27.558;2023-09-07T09:26:40;100946.28;;;30.14;47.62
41866;BME280;27539;43.222;27.558;2023-09-07T09:29:05;100957.13;;;29.73;47.34
41866;BME280;27539;43.222;27.558;2023-09-07T09:31:31;100946.63;;;29.65;48.18
41866;BME280;27539;43.222;27.558;2023-09-07T09:33:56;100954.66;;;29.15;50.17
41866;BME280;27539;43.222;27.558;2023-09-07T09:36:22;100946.53;;;29.17;51.65
41866;BME280;27539;43.222;27.558;2023-09-07T09:38:49;100949.19;;;28.98;48.09
41866;BME280;27539;43.222;27.558;2023-09-07T09:41:16;100946.72;;;28.84;49.69
41866;BME280;27539;43.222;27.558;2023-09-07T09:43:42;100926.31;;;28.85;52.11
41866;BME280;27539;43.222;27.558;2023-09-07T09:46:10;100920.78;;;29.05;53.92
41866;BME280;27539;43.222;27.558;2023-09-07T09:48:36;100930.28;;;29.65;54.67
41866;BME280;27539;43.222;27.558;2023-09-07T09:51:02;100934.31;;;29.64;51.68
41866;BME280;27539;43.222;27.558;2023-09-07T09:53:29;100919.81;;;28.73;55.02
41866;BME280;27539;43.222;27.558;2023-09-07T09:55:55;100929.84;;;28.67;57.13
41866;BME280;27539;43.222;27.558;2023-09-07T09:58:21;100936.19;;;28.60;59.79
41866;BME280;27539;43.222;27.558;2023-09-07T10:00:50;100934.94;;;28.73;61.41
41866;BME280;27539;43.222;27.558;2023-09-07T10:03:44;100936.97;;;28.85;60.59
41866;BME280;27539;43.222;27.558;2023-09-07T10:06:24;100943.72;;;28.93;58.72
41866;BME280;27539;43.222;27.558;2023-09-07T10:08:55;100927.22;;;29.02;61.30
41866;BME280;27539;43.222;27.558;2023-09-07T10:11:30;100935.59;;;29.35;61.68
41866;BME280;27539;43.222;27.558;2023-09-07T10:13:57;100934.69;;;29.47;57.49
41866;BME280;27539;43.222;27.558;2023-09-07T10:16:23;100921.53;;;29.46;57.84
41866;BME280;27539;43.222;27.558;2023-09-07T10:18:49;100934.38;;;29.08;56.19
41866;BME280;27539;43.222;27.558;2023-09-07T10:21:14;100939.50;;;29.15;56.79
41866;BME280;27539;43.222;27.558;2023-09-07T10:23:44;100926.06;;;28.91;55.41
41866;BME280;27539;43.222;27.558;2023-09-07T10:26:12;100933.63;;;28.83;55.36
41866;BME280;27539;43.222;27.558;2023-09-07T10:28:39;100909.88;;;28.82;54.67
41866;BME280;27539;43.222;27.558;2023-09-07T10:31:06;100875.81;;;28.65;54.18
41866;BME280;27539;43.222;27.558;2023-09-07T10:33:33;100918.19;;;29.28;59.18
41866;BME280;27539;43.222;27.558;2023-09-07T10:35:59;100931.88;;;29.06;55.93
41866;BME280;27539;43.222;27.558;2023-09-07T10:38:25;100924.97;;;29.07;55.88
41866;BME280;27539;43.222;27.558;2023-09-07T10:40:58;100925.94;;;28.99;55.02
41866;BME280;27539;43.222;27.558;2023-09-07T10:43:31;100924.00;;;29.03;55.65
41866;BME280;27539;43.222;27.558;2023-09-07T10:45:58;100924.25;;;28.98;54.69
41866;BME280;27539;43.222;27.558;2023-09-07T10:48:24;100917.63;;;29.22;55.81
41866;BME280;27539;43.222;27.558;2023-09-07T10:50:51;100914.16;;;29.61;55.25
41866;BME280;27539;43.222;27.558;2023-09-07T10:53:25;100916.88;;;29.85;54.15
41866;BME280;27539;43.222;27.558;2023-09-07T10:55:52;100920.31;;;29.75;54.07
41866;BME280;27539;43.222;27.558;2023-09-07T10:58:32;100915.47;;;29.79;54.09
41866;BME280;27539;43.222;27.558;2023-09-07T11:00:59;100905.78;;;30.00;53.06
41866;BME280;27539;43.222;27.558;2023-09-07T11:03:25;100902.44;;;29.82;52.03
41866;BME280;27539;43.222;27.558;2023-09-07T11:06:01;100908.72;;;30.03;53.22
41866;BME280;27539;43.222;27.558;2023-09-07T11:08:31;100913.13;;;30.17;50.25
41866;BME280;27539;43.222;27.558;2023-09-07T11:10:56;100903.63;;;30.28;50.50
41866;BME280;27539;43.222;27.558;2023-09-07T11:13:24;100915.41;;;30.58;50.19
41866;BME280;27539;43.222;27.558;2023-09-07T11:15:53;100899.69;;;30.52;48.27
41866;BME280;27539;43.222;27.558;2023-09-07T11:18:20;100906.63;;;30.51;48.96
41866;BME280;27539;43.222;27.558;2023-09-07T11:20:50;100913.28;;;30.55;48.10
41866;BME280;27539;43.222;27.558;2023-09-07T11:23:19;100900.88;;;30.51;48.94
41866;BME280;27539;43.222;27.558;2023-09-07T11:25:49;100891.66;;;30.62;49.89
41866;BME280;27539;43.222;27.558;2023-09-07T11:28:17;100881.16;;;30.69;49.67
41866;BME280;27539;43.222;27.558;2023-09-07T11:30:50;100877.25;;;30.77;48.89
41866;BME280;27539;43.222;27.558;2023-09-07T11:33:16;100880.69;;;30.83;49.07
41866;BME280;27539;43.222;27.558;2023-09-07T11:35:42;100861.13;;;30.53;48.77
41866;BME280;27539;43.222;27.558;2023-09-07T11:38:07;100887.88;;;30.38;49.12
41866;BME280;27539;43.222;27.558;2023-09-07T11:40:36;100882.63;;;30.08;47.96
41866;BME280;27539;43.222;27.558;2023-09-07T11:43:01;100897.91;;;29.81;48.96
41866;BME280;27539;43.222;27.558;2023-09-07T11:45:27;100897.66;;;29.70;49.67
41866;BME280;27539;43.222;27.558;2023-09-07T11:47:52;100888.94;;;29.66;49.79
41866;BME280;27539;43.222;27.558;2023-09-07T11:50:18;100881.69;;;29.41;49.64
41866;BME280;27539;43.222;27.558;2023-09-07T11:52:44;100877.88;;;29.37;49.43
41866;BME280;27539;43.222;27.558;2023-09-07T11:55:10;100884.88;;;29.23;49.47
41866;BME280;27539;43.222;27.558;2023-09-07T11:57:36;100886.31;;;29.29;52.04
41866;BME280;27539;43.222;27.558;2023-09-07T12:00:03;100875.06;;;29.08;52.13
41866;BME280;27539;43.222;27.558;2023-09-07T12:02:30;100889.59;;;29.16;52.60
41866;BME280;27539;43.222;27.558;2023-09-07T12:04:55;100892.25;;;29.08;53.25
41866;BME280;27539;43.222;27.558;2023-09-07T12:07:21;100886.41;;;28.77;54.53
41866;BME280;27539;43.222;27.558;2023-09-07T12:09:47;100888.09;;;28.94;55.74
41866;BME280;27539;43.222;27.558;2023-09-07T12:12:13;100882.72;;;29.04;58.03
41866;BME280;27539;43.222;27.558;2023-09-07T12:14:39;100871.78;;;29.22;54.91
41866;BME280;27539;43.222;27.558;2023-09-07T12:17:04;100871.50;;;29.59;57.23
41866;BME280;27539;43.222;27.558;2023-09-07T12:19:30;100868.09;;;30.01;54.03
41866;BME280;27539;43.222;27.558;2023-09-07T12:21:55;100866.78;;;30.14;54.62
41866;BME280;27539;43.222;27.558;2023-09-07T12:24:21;100876.16;;;30.27;53.65
41866;BME280;27539;43.222;27.558;2023-09-07T12:26:46;100885.13;;;30.26;59.45
41866;BME280;27539;43.222;27.558;2023-09-07T12:29:12;100874.59;;;29.98;56.45
41866;BME280;27539;43.222;27.558;2023-09-07T12:31:38;100876.28;;;29.83;55.86